Blairsville, GA

5:58 PM EST on January 27, 2015 (GMT -0500)
Town Mountain | Change Station
CLOSE
Current Station
Personal Weather Station
Location: Blairsville, GA
Elevation: 2343 ft
Nearby Weather Stations

Elev 2343 ft 34.87 °N, 83.94 °W | Updated 1 second ago

Overcast
Overcast
32.5 °F
Feels Like 32 °F
N
3.0
Wind Variable Wind from North
Gusts 10.0 mph

Today
High -- | Low -- °F
--% Chance of Precip.
Yesterday
High -- | Low -- °F
Precip. -- in
7:38 AM 5:59 PM
First Quarter, 58% visible
Pressure 30.00 in
Visibility 10.0 miles
Clouds Overcast 2700 ft
Windchill 32 °F
Dew Point 28 °F
Humidity 83%
Rainfall 0.00 in
Snow Depth Not available.
UV 0 out of 12
Pollen .30 out of 12
Air Quality Not available.
Flu Activity Not available.
METAR KRHP 272235Z AUTO 04007KT 020V080 10SM OVC027 01/M02 A3000 RMK AO2 T00101025

More Conditions Fewer Conditions

Pressure 30.00 in
Visibility 10.0 miles
Clouds Overcast 2700 ft
Windchill 32 °F
Dew Point 28 °F
Humidity 83%
Rainfall 0.00 in
Snow Depth Not available.
UV 0 out of 12
Pollen .30 out of 12
Air Quality Not available.
Flu Activity Not available.
METAR KRHP 272235Z AUTO 04007KT 020V080 10SM OVC027 01/M02 A3000 RMK AO2 T00101025

More Conditions Fewer Conditions

10-Day Weather Forecast

Almanac

Astronomy

Jan. 27, 2015 Rise Set
Actual Time
Civil Twilight
Nautical Twilight
Astronomical Twilight
Moon
Length of Visible Light
Length of Day
Tomorrow will be .
, % of the Moon is Illuminated

Today's Extremes

State Highs State Lows

Community

WunderPhotos

Upload Photos

1,790,960 photos uploaded!

WunderBlogs® & News

Nearby

Air Quality

  Air Quality AQ Index Pollutant
Not available.

Snow Depth

Station Depth Elevation

Earthquake Activity

City Distance Mag. Time & Date
Minimum magnitude displayed is 2.5.

Coastal Water Temperatures

Place Temperature

Nearby Weather Stations